Other Surface Observations
Issued by NWS Missoula, MT

Home | Current Version | Previous Version | Text Only | Print | Product List | Glossary On
Versions: 1 2 3 4 5 6 7 8 9 10 11 12 13 14 15 16 17 18 19 20 21 22 23 24 25 26 27 28 29 30 31 32 33 34 35 36 37 38 39 40 41 42 43 44 45 46 47 48 49 50
000
SXUS55 KMSO 010203
OSOMSO
MONTANA AWOS SUMMARY
NATIONAL WEATHER SERVICE MISSOULA MT
803 PM MDT FRI JUL 31 2015

Montana AWOS Reports

LAUREL      |K6S8 010155Z AUTO 32006KT 40SM 32/M01 A3006 RMK AO1 T03221010
TWIN BRIDGES|K7S1 010155Z AUTO 00000KT 40SM 30/06 A3015 RMK AO1 T03000061
ROUNDUP     |KRPX 010155Z AUTO 36006KT 40SM 31/03 A3000 RMK AO1 T03110033
MALTA       |KM75 010155Z AUTO 00000KT 40SM 32/10 A2996 RMK AO1 T03170100
SCOBEY      |K9S2 010155Z AUTO 07010G14KT 40SM 26/11 A3000 RMK AO1 T02610111
PLAINS      |KS34 010155Z AUTO 21005KT 25SM 36/03 A3000 RMK AO1 T03560028




USA.gov is the U.S. government's official web portal to all federal, state and local government web resources and services.